Ramona, KS

12:16 PM CDT on March 30, 2015 (GMT -0500)
K-15, Durham | | Change Station
CLOSE
Current Station
Personal Weather Station
Location: Durham, KS
Elevation: 1394 ft
Nearby Weather Stations

Elev 1394 ft 38.49 °N, 97.22 °W | Updated 8 seconds ago

Clear
Clear
66.7 °F
Feels Like 66.7 °F
N
19.9
Wind Variable Wind from South
Gusts 22.4 mph

Today
High -- | Low -- °F
--% Chance of Precip.
Yesterday
High -- | Low -- °F
Precip. -- in
7:16 AM 7:49 PM
Waxing Gibbous, 81% visible
Pressure 30.13 in
Visibility 10.0 miles
Clouds Clear
Dew Point 31 °F
Humidity 26%
Rainfall 0.00 in
Snow Depth Not available.
UV 6.0 out of 12
Pollen 9.40 out of 12
Air Quality Not available.
Flu Activity Not available.
METAR KSLN 301653Z 20014G22KT 10SM CLR 21/M01 A3013 RMK AO2 SLP202 T02111006

More Conditions Fewer Conditions

Pressure 30.13 in
Visibility 10.0 miles
Clouds Clear
Dew Point 31 °F
Humidity 26%
Rainfall 0.00 in
Snow Depth Not available.
UV 6.0 out of 12
Pollen 9.40 out of 12
Air Quality Not available.
Flu Activity Not available.
METAR KSLN 301653Z 20014G22KT 10SM CLR 21/M01 A3013 RMK AO2 SLP202 T02111006

More Conditions Fewer Conditions

10-Day Weather Forecast

Almanac

Astronomy

Mar. 30, 2015 Rise Set
Actual Time
Civil Twilight
Nautical Twilight
Astronomical Twilight
Moon
Length of Visible Light
Length of Day
Tomorrow will be .
, % of the Moon is Illuminated

Today's Extremes

State Highs State Lows

Community

WunderPhotos

Upload Photos

1,809,542 photos uploaded!

WunderBlogs® & News

Nearby

Air Quality

  Air Quality AQ Index Pollutant
Not available.

Snow Depth

Station Depth Elevation

Earthquake Activity

City Distance Mag. Time & Date
Minimum magnitude displayed is 2.5.

Coastal Water Temperatures

Place Temperature

Stations

Nearby Weather Stations

Station Location Temp. Windchill Dew Point Humidity Wind Precip. Elev Updated Type